Aviation Digital Data Service (ADDS)

Output produced by METARs form (1826 UTC 22 November 2017)
found at http://www.aviationweather.gov/adds/metars/
 
KPAE 221729Z 2218/2318 12007KT P6SM FEW005 BKN035 OVC045 
     FM222100 17019G26KT P6SM -SHRA SCT025 OVC040 
     FM230500 19016G23KT 5SM -SHRA OVC025
       
TAF AMD KPAM 221438Z 2214/2317 02010KT 9999 SCT007 BKN200 QNH2998INS 
     BECMG 2217/2218 02009KT 9999 BKN025 QNH2994INS 
     BECMG 2303/2304 03012KT 8000 -SHRA OVC015 QNH3000INS 
     BECMG 2308/2309 03012KT 3200 -SHRA OVC006 QNH2996INS 
     BECMG 2315/2316 02012KT 9999 NSW SCT004 BKN010 OVC100 QNH2994INS TX21/2220Z TN13/2311Z
       
KPBF 221720Z 2218/2318 01010KT P6SM SKC 
     FM230100 VRB04KT P6SM SKC 
     FM231500 05005KT P6SM SKC
       
KPBG 221739Z 2218/2318 33007KT P6SM VCSH SCT025 OVC050 
     FM222100 32009G16KT P6SM SCT050 
     FM222300 31010G17KT P6SM SCT200 
     FM230700 30006KT P6SM FEW200 
     FM231400 24005KT P6SM SCT120
       
KPBI 221731Z 2218/2318 VRB03KT P6SM SCT030 
     FM221900 07009KT P6SM SCT030 SCT250 
     FM230300 VRB03KT P6SM FEW030 BKN250 
     FM231400 15010KT P6SM VCSH SCT030 BKN070 BKN100
       
KPDK 221723Z 2218/2318 33008KT P6SM FEW250 
     FM230300 34003KT P6SM SCT250 
     FM230500 02003KT P6SM SCT030 
     FM230800 06003KT P6SM BKN030 
     FM231600 08004KT P6SM FEW035
       
KPDT 221740Z 2218/2318 VRB06KT P6SM BKN100 BKN120 
     FM222300 VRB03KT P6SM BKN070 
     FM230200 VRB03KT P6SM BKN060 OVC080 
     TEMPO 2302/2306 P6SM -RA OVC050
       
KPDX 221734Z 2218/2318 11011KT 6SM -RA SCT030 OVC050 
     TEMPO 2218/2220 4SM -RA BR BKN025 OVC035 
     FM230300 12010KT P6SM -RA BKN025 OVC040 
     FM231200 16012KT 5SM -RA BR BKN015 OVC025
       
KPGA 221720Z 2218/2318 VRB05KT P6SM FEW250
       
KPGD 221739Z 2218/2318 30006KT P6SM SCT040 SCT250 
     FM230100 07004KT P6SM BKN040 
     FM230800 10004KT P6SM SCT010 BKN130 
     TEMPO 2309/2313 3SM BR BKN010 
     FM231400 14006KT P6SM SCT025 BKN130 
     FM231700 18008KT P6SM VCSH SCT035 BKN100
       
KPGV 221746Z 2218/2318 34012G18KT P6SM SCT050 
     FM222200 01007KT P6SM FEW250 AMD LTD TO CLD VIS AND WIND
       
KPHF 221749Z 2218/2318 33012G18KT P6SM SCT050 
     FM222300 36008KT P6SM SKC 
     FM230600 36005KT P6SM SKC 
     FM231500 35008KT P6SM SKC
       
KPHL 221733Z 2218/2324 32016G32KT P6SM SCT045 
     TEMPO 2218/2220 BKN045 
     FM222100 32016G27KT P6SM SKC 
     FM230100 33011KT P6SM SKC 
     FM230600 32007KT P6SM SKC 
     FM231800 29007KT P6SM SKC 
     FM232300 26005KT P6SM SCT150
       
KPHX 221726Z 2218/2324 08010G18KT P6SM SKC 
     FM222100 09006KT P6SM SKC 
     TEMPO 2223/2302 VRB04KT
       
KPIA 221732Z 2218/2318 VRB04KT P6SM SKC 
     FM230200 19003KT P6SM BKN120 
     FM230600 19006KT P6SM BKN080 
     FM231100 20007KT P6SM FEW100 
     FM231500 22008KT P6SM SKC
       
KPIE 221739Z 2218/2318 03005KT P6SM SCT035 SCT130 BKN250 
     FM222100 35005KT P6SM FEW040 BKN130 
     FM230200 06007KT P6SM SCT040 BKN130 
     FM230800 10006KT P6SM VCSH SCT015 BKN040 
     FM231400 13007KT P6SM VCSH SCT015 BKN025 
     FM231700 17008KT P6SM VCTS SCT020CB BKN035
       
KPIH 221723Z 2218/2318 21008KT P6SM BKN080 BKN250 
     FM230300 17008KT P6SM BKN180
       
KPIR 221729Z 2218/2318 18008KT P6SM SKC 
     FM222200 28012KT P6SM FEW250 
     FM230800 29004KT P6SM FEW250 
     FM231000 23003KT 4SM BR SCT200
       
KPIT 221722Z 2218/2324 32009KT P6SM BKN035 
     TEMPO 2218/2221 BKN025 
     FM230000 32004KT P6SM SCT060
       
KPKB 221728Z 2218/2318 33005KT P6SM BKN035 
     FM222000 33005KT P6SM SCT035 
     FM231000 00000KT P6SM FEW250
       
KPMD 221727Z 2218/2318 VRB04KT P6SM SKC 
     FM221900 04008KT P6SM SKC 
     FM230200 VRB04KT P6SM SKC
       
KPNA 221725Z 2218/2318 30007KT P6SM SCT010 OVC035 
     TEMPO 2218/2221 2SM -DZ BR BKN010 
     FM222100 30008KT P6SM SCT015 BKN150 
     FM230400 30007KT P6SM VCFG SCT005 BKN150 AMD LTD TO CLD VIS AND WIND
       
KPNE 221733Z 2218/2318 33014G29KT P6SM SCT045 
     TEMPO 2218/2220 BKN045 
     FM222100 33015G25KT P6SM SKC 
     FM230100 33010KT P6SM SKC 
     FM230600 33006KT P6SM SKC 
     FM231700 30007KT P6SM SKC
       
KPNS 221734Z 2218/2318 36015G25KT P6SM BKN250 
     FM230200 36010KT P6SM SCT250
       
TAF KPOB 221800Z 2218/2324 01015G20KT 9999 BKN250 QNH2999INS 
     BECMG 2221/2222 35009KT 9999 BKN250 QNH3003INS TX21/2221Z TN01/2312Z
       
KPOU 221720Z 2218/2318 34009KT P6SM VCSH BKN050 
     FM222000 33012KT P6SM FEW050 SCT250 
     FM230200 32008KT P6SM FEW250 
     FM230900 33004KT P6SM FEW200
       
KPQI 221729Z 2218/2318 15004KT P6SM VCSH OVC070 
     FM222100 00000KT 5SM -RA OVC030 
     FM222300 34011KT 1SM -SN SCT003 BKN010 
     FM230500 33013G21KT P6SM BKN015 
     FM230800 33013KT P6SM BKN045
       
KPRB 221727Z 2218/2318 VRB03KT P6SM SKC 
     FM222000 11008KT P6SM SKC 
     FM230500 VRB03KT P6SM SKC 
     FM231000 VRB03KT P6SM SCT006
       
KPRC 221720Z 2218/2318 VRB05KT P6SM FEW250
       
KPSC 221740Z 2218/2318 15006KT P6SM OVC100 
     FM221900 VRB05KT P6SM BKN040 OVC070 
     FM230300 VRB04KT P6SM BKN080 
     FM230600 22007KT P6SM -RA BKN050 OVC070
       
KPSF 221720Z 2218/2318 31009KT P6SM VCSH BKN015 
     TEMPO 2218/2220 5SM -SHRA BR BKN010 
     FM222000 31014G29KT P6SM BKN030 
     FM230400 31012G24KT P6SM FEW250 
     FM231100 30009KT P6SM FEW200
       
KPSM 221738Z 2218/2318 32006KT 2SM -RA BR OVC006 
     FM222100 31009KT P6SM -SHRA OVC020 
     FM230000 30010G17KT P6SM SCT050 
     FM230800 29006KT P6SM SCT100
       
KPSP 221723Z 2218/2318 VRB06KT P6SM SKC
       
KPUB 221725Z 2218/2318 VRB06KT P6SM BKN250 
     FM230400 32006KT P6SM SCT080 BKN250
       
KPUW 221738Z 2218/2318 16009KT P6SM VCSH FEW050 OVC080 
     FM230600 16010KT P6SM -RA SCT020 OVC040 
     FM231300 16009KT P6SM -SHRA BKN035 WS020/22030KT
       
KPVD 221734Z 2218/2318 31004KT 2SM -RA BR OVC003 
     FM222000 33007G17KT 4SM -RA BR OVC015 
     FM222100 33010G25KT P6SM BKN045 
     FM222300 33011G25KT P6SM SCT250 
     FM230800 32007KT P6SM SKC
       
KPVU 221725Z 2218/2318 VRB04KT P6SM SCT200
       
KPWM 221738Z 2218/2318 30005KT 4SM -RA BR OVC004 
     FM222100 33007KT P6SM -SHRA BKN025 
     FM230000 32010G17KT P6SM SCT050 
     FM230700 32007KT P6SM SKC
       
KPWT 221729Z 2218/2318 20009KT P6SM VCSH SCT007 OVC025 
     FM222100 20011G18KT P6SM -SHRA OVC025 
     FM230500 20014G22KT 4SM -SHRA BR OVC007